METAR Data
IDs: Format: Raw Decoded Include TAF

Data at: 1204 UTC 10 Jul 2020

METAR for:LFAQ (Albert/Picardie Arpt, --, FR)
Text:LFAQ 101200Z AUTO 34011KT 300V010 9999 BKN019 BKN027 BKN046 19/14 Q1017 TEMPO 4000 SHRA BKN025TCU
Temperature: 19.0°C ( 66°F)
Dewpoint: 14.0°C ( 57°F) [RH = 73%]
Pressure (altimeter):30.03 inches Hg (1017.0 mb)
Winds:from the NNW (340 degrees) at 13 MPH (11 knots; 5.7 m/s)
Visibility:6 or more sm (10+ km)
Ceiling:1900 feet AGL
Clouds: broken clouds at 1900 feet AGL, broken clouds at 2700 feet AGL, broken clouds at 4600 feet AGL

TAF for:LFAQ (Albert/Picardie Arpt, --, FR) issued at 1100 UTC 10 Jul 2020
Text:TAF LFAQ 101100Z 1012/1021 33009KT 9999 BKN030
Forecast period:1200 to 2100 UTC 10 July 2020
Forecast type:FROM: standard forecast or significant change
Winds:from the NNW (330 degrees) at 10 MPH (9 knots; 4.6 m/s)
Visibility:6 or more sm (10+ km)
Ceiling:3000 feet AGL
Clouds: broken clouds at 3000 feet AGL
Text:TEMPO 1012/1018 4000 SHRA BKN025TCU
Forecast period:1200 to 1800 UTC 10 July 2020
Forecast type:TEMPORARY: The following changes expected for less than half the time period
Visibility: 2.49 sm ( 4.01 km)
Ceiling:2500 feet AGL
Clouds: broken clouds at 2500 feet AGL
Weather:SHRA (rain showers)